createdAt,value
2022-10-14T00:02:35.900Z,22.63
2022-10-14T00:09:00.102Z,22.52
2022-10-14T00:15:24.745Z,22.44
2022-10-14T00:21:54.787Z,22.35
2022-10-14T00:28:19.106Z,22.26
2022-10-14T00:34:43.375Z,22.17
2022-10-14T00:41:07.685Z,22.08
2022-10-14T00:47:31.962Z,21.98
2022-10-14T00:53:56.208Z,21.90
2022-10-14T01:00:20.408Z,21.82
2022-10-14T01:06:53.399Z,21.74
2022-10-14T01:13:20.623Z,21.65
2022-10-14T01:20:03.205Z,21.56
2022-10-14T01:26:27.578Z,21.48
2022-10-14T01:32:54.875Z,21.41
2022-10-14T01:39:25.091Z,21.33
2022-10-14T01:45:51.812Z,21.24
2022-10-14T01:52:16.067Z,21.17
2022-10-14T01:58:40.277Z,21.09
2022-10-14T02:05:04.522Z,21.02
2022-10-14T02:11:31.488Z,20.93
2022-10-14T02:18:14.242Z,20.86
2022-10-14T02:24:38.616Z,20.76
2022-10-14T02:31:02.919Z,20.66
2022-10-14T02:37:27.910Z,20.57
2022-10-14T02:43:52.177Z,20.50
2022-10-14T02:50:16.488Z,20.43
2022-10-14T02:56:40.794Z,20.34
2022-10-14T03:03:05.132Z,20.26
2022-10-14T03:09:29.438Z,20.17
2022-10-14T03:15:53.713Z,20.09
2022-10-14T03:22:17.932Z,20.00
2022-10-14T03:28:42.150Z,19.92
2022-10-14T03:35:15.266Z,19.85
2022-10-14T03:41:39.552Z,19.77
2022-10-14T03:48:03.764Z,19.71
2022-10-14T03:54:27.987Z,19.63
2022-10-14T04:00:52.376Z,19.57
2022-10-14T04:07:19.157Z,19.51
2022-10-14T04:13:43.391Z,19.46
2022-10-14T04:20:07.682Z,19.40
2022-10-14T04:26:31.873Z,19.35
2022-10-14T04:32:56.051Z,19.39
2022-10-14T04:39:20.314Z,19.50
2022-10-14T04:45:44.598Z,19.69
2022-10-14T04:52:08.945Z,19.99
2022-10-14T04:58:39.287Z,20.41
2022-10-14T05:05:03.564Z,20.92
2022-10-14T05:11:27.910Z,21.41
2022-10-14T05:17:52.214Z,21.83
2022-10-14T05:24:16.492Z,22.19
2022-10-14T05:30:40.816Z,22.52
2022-10-14T05:37:05.112Z,22.83
2022-10-14T05:43:32.468Z,23.11
2022-10-14T05:49:36.745Z,23.37
2022-10-14T05:56:01.090Z,23.56
2022-10-14T06:02:25.388Z,23.65
2022-10-14T06:08:49.696Z,23.74
2022-10-14T06:15:13.942Z,23.90
2022-10-14T06:21:38.229Z,24.09
2022-10-14T06:28:02.868Z,24.27
2022-10-14T06:34:27.138Z,24.39
2022-10-14T06:40:51.414Z,24.53
2022-10-14T06:47:15.703Z,24.66
2022-10-14T06:53:39.968Z,24.78
2022-10-14T07:00:04.276Z,24.89
2022-10-14T07:06:28.623Z,25.01
2022-10-14T07:12:52.904Z,25.13
2022-10-14T07:19:17.124Z,25.22
2022-10-14T07:25:40.314Z,25.39
2022-10-14T07:32:04.609Z,25.46
2022-10-14T07:38:30.172Z,25.44
2022-10-14T07:44:54.478Z,25.45
2022-10-14T07:51:18.764Z,25.50
2022-10-14T07:57:43.000Z,25.51
2022-10-14T08:04:07.279Z,25.57
2022-10-14T08:10:31.624Z,25.61
2022-10-14T08:16:55.941Z,25.66
2022-10-14T08:23:20.331Z,25.74
2022-10-14T08:29:44.648Z,25.71
2022-10-14T08:36:09.141Z,25.67
2022-10-14T08:42:42.295Z,25.76
2022-10-14T08:49:07.076Z,25.94
2022-10-14T08:55:31.502Z,26.06
2022-10-14T09:02:07.843Z,26.04
2022-10-14T09:08:32.139Z,25.88
2022-10-14T09:14:59.235Z,25.65
2022-10-14T09:21:40.592Z,25.44
2022-10-14T09:28:07.690Z,25.39
2022-10-14T09:34:31.741Z,25.46
2022-10-14T09:40:55.999Z,25.65
2022-10-14T09:47:20.626Z,25.86
2022-10-14T09:53:47.693Z,25.97
2022-10-14T10:00:14.677Z,26.05
2022-10-14T10:06:18.623Z,26.34
2022-10-14T10:12:42.916Z,26.61
2022-10-14T10:19:07.230Z,26.79
2022-10-14T10:25:31.541Z,27.07
2022-10-14T10:31:58.812Z,27.26
2022-10-14T10:38:35.123Z,27.31
2022-10-14T10:45:00.586Z,27.34
2022-10-14T10:51:37.155Z,27.32
2022-10-14T10:58:07.477Z,27.29
2022-10-14T11:04:34.100Z,27.21
2022-10-14T11:10:59.427Z,27.03
2022-10-14T11:17:22.335Z,26.79
2022-10-14T11:23:54.707Z,26.56
2022-10-14T11:30:17.289Z,26.36
2022-10-14T11:36:59.794Z,26.21
2022-10-14T11:43:33.317Z,26.03
2022-10-14T11:49:57.612Z,25.95
2022-10-14T11:56:22.097Z,25.96
2022-10-14T12:02:52.067Z,25.75
2022-10-14T12:09:16.482Z,25.34
2022-10-14T12:15:46.647Z,25.00
2022-10-14T12:22:13.632Z,24.76
2022-10-14T12:28:37.971Z,24.56
2022-10-14T12:35:14.368Z,24.37
2022-10-14T12:41:36.895Z,24.20
2022-10-14T12:48:03.979Z,24.08
2022-10-14T12:54:28.296Z,23.99
2022-10-14T13:00:55.365Z,24.01
2022-10-14T13:07:40.024Z,24.19
2022-10-14T13:14:19.425Z,24.55
2022-10-14T13:20:43.726Z,24.96
2022-10-14T13:27:10.583Z,25.31
2022-10-14T13:33:34.986Z,25.51
2022-10-14T13:39:59.172Z,25.57
2022-10-14T13:47:42.758Z,25.55
2022-10-14T13:54:07.080Z,24.82
2022-10-14T14:00:40.700Z,24.04
2022-10-14T14:07:35.164Z,23.41
2022-10-14T14:13:54.690Z,22.98
2022-10-14T14:20:27.858Z,22.68
2022-10-14T14:26:52.082Z,22.40
2022-10-14T14:33:16.362Z,22.19
2022-10-14T14:39:40.682Z,21.99
2022-10-14T14:46:05.011Z,21.83
2022-10-14T14:52:21.951Z,21.70
2022-10-14T14:58:41.592Z,21.56
2022-10-14T15:05:05.843Z,21.45
2022-10-14T15:11:30.354Z,21.34
2022-10-14T15:18:06.990Z,21.24
2022-10-14T15:24:40.516Z,21.14
2022-10-14T15:31:20.064Z,21.06
2022-10-14T15:37:44.056Z,20.98
2022-10-14T15:44:14.528Z,20.92
2022-10-14T15:50:38.768Z,20.86
2022-10-14T15:57:03.045Z,20.78
2022-10-14T16:03:27.339Z,20.72
2022-10-14T16:09:52.143Z,20.64
2022-10-14T16:16:16.600Z,20.59
2022-10-14T16:22:40.823Z,20.54
2022-10-14T16:29:05.193Z,20.48
2022-10-14T16:35:29.477Z,20.44
2022-10-14T16:41:59.631Z,20.39
2022-10-14T16:48:23.853Z,20.33
2022-10-14T16:54:48.361Z,20.29
2022-10-14T17:01:12.949Z,20.25
2022-10-14T17:07:37.214Z,20.19
2022-10-14T17:14:01.539Z,20.13
2022-10-14T17:20:25.953Z,20.09
2022-10-14T17:26:50.229Z,20.05
2022-10-14T17:33:14.212Z,20.10
2022-10-14T17:39:38.487Z,20.22
2022-10-14T17:46:03.645Z,20.43
2022-10-14T17:52:23.949Z,20.64
2022-10-14T17:58:48.330Z,20.83
2022-10-14T18:05:11.025Z,20.98
2022-10-14T18:12:03.633Z,21.10
2022-10-14T18:18:22.556Z,21.21
2022-10-14T18:24:46.836Z,21.25
2022-10-14T18:31:11.361Z,21.24
2022-10-14T18:37:35.655Z,21.21
2022-10-14T18:43:59.857Z,21.17
2022-10-14T18:50:16.641Z,21.13
2022-10-14T18:56:40.123Z,21.08
2022-10-14T19:03:04.410Z,21.04
2022-10-14T19:09:28.898Z,21.00
2022-10-14T19:15:53.696Z,20.95
2022-10-14T19:22:09.037Z,20.92
2022-10-14T19:28:33.264Z,20.89
2022-10-14T19:34:57.538Z,20.86
2022-10-14T19:41:21.807Z,20.83
2022-10-14T19:47:46.100Z,20.79
2022-10-14T19:54:10.365Z,20.77
2022-10-14T20:00:34.616Z,20.74
2022-10-14T20:06:58.926Z,20.71
2022-10-14T20:13:23.367Z,20.68
2022-10-14T20:19:47.585Z,20.63
2022-10-14T20:26:11.880Z,20.60
2022-10-14T20:32:36.267Z,20.58
2022-10-14T20:39:00.462Z,20.54
2022-10-14T20:45:24.808Z,20.51
2022-10-14T20:51:48.985Z,20.47
2022-10-14T20:58:13.314Z,20.45
2022-10-14T21:04:37.611Z,20.41
2022-10-14T21:11:01.827Z,20.38
2022-10-14T21:17:26.133Z,20.34
2022-10-14T21:23:43.305Z,20.30
2022-10-14T21:30:07.686Z,20.27
2022-10-14T21:36:32.030Z,20.24
2022-10-14T21:42:56.306Z,20.21
2022-10-14T21:49:20.700Z,20.18
2022-10-14T21:55:45.159Z,20.15
2022-10-14T22:02:15.329Z,20.10
2022-10-14T22:08:39.593Z,20.05
2022-10-14T22:15:03.798Z,19.98
2022-10-14T22:21:28.022Z,19.93
2022-10-14T22:27:52.335Z,19.88
2022-10-14T22:34:16.660Z,19.83
2022-10-14T22:40:40.946Z,19.78
2022-10-14T22:47:05.262Z,19.75
2022-10-14T22:53:29.172Z,19.69
2022-10-14T22:59:56.201Z,19.64
2022-10-14T23:06:20.567Z,19.60
2022-10-14T23:12:44.862Z,19.56
2022-10-14T23:19:10.613Z,19.52
2022-10-14T23:25:34.804Z,19.48
2022-10-14T23:31:59.006Z,19.45
2022-10-14T23:38:16.699Z,19.41
2022-10-14T23:44:20.530Z,19.38
2022-10-14T23:50:44.811Z,19.33
2022-10-14T23:57:07.623Z,19.29
